Moody AFB, Georgia
Current Conditions -  °F | °C
As of 12:58 PM on Friday 31 Oct 2014 (Local Time) from KVAD Reporting Station
Clear Clear  
Wind Chill: 69°   Ceiling: Unl
Heat Index: 69°   Visibility: 10mi
Dew Point: 41°   Wind: 9mph
Humidity: 35%   Direction: 280°W
Pressure: 29.9"   Gusts: NA
Location:  30.9753°N, 83.2042°W
Report Text: KVAD 311658Z AUTO 28008KT 10SM CLR 21/05 A2990 RMK AO2 SLP127 T02080049 $
Loading
Personal Weather Stations






























Interactive Weather Map New forecast layout! Learn more

10-Day Weather Forecast

Advertisements
Track Severe Weather on mobile